Time;durP1;ratioP1;P1;durP2;ratioP2;P2;SDS_P1;SDS_P2;PMS_P1;PMS_P2;Temp;Humidity;BMP_temperature;BMP_pressure;BME280_temperature;BME280_humidity;BME280_pressure;Samples;Min_cycle;Max_cycle;Signal;HPM_P1;HPM_P2
2024/03/21 00:00:09;;;;;;;9.33;6.40;;;8.50;99.90;;;;;;5059734;28;20490;-83
2024/03/21 00:02:54;;;;;;;8.20;5.90;;;8.50;99.90;;;;;;5062752;28;20914;-83
2024/03/21 00:05:39;;;;;;;10.93;6.03;;;8.50;99.90;;;;;;5066021;28;20504;-81
2024/03/21 00:08:24;;;;;;;6.13;4.70;;;8.50;99.90;;;;;;5061994;28;20839;-83
2024/03/21 00:11:10;;;;;;;10.20;5.90;;;8.60;99.90;;;;;;5062336;28;20506;-81
2024/03/21 00:13:54;;;;;;;7.53;5.27;;;8.60;99.90;;;;;;5065547;28;20560;-82
2024/03/21 00:16:41;;;;;;;7.03;5.57;;;8.50;99.90;;;;;;5066187;28;20493;-83
2024/03/21 00:19:26;;;;;;;13.20;6.10;;;8.50;99.90;;;;;;5063816;28;20452;-83
2024/03/21 00:22:12;;;;;;;6.40;5.27;;;8.50;99.90;;;;;;5063915;28;20814;-82
2024/03/21 00:24:56;;;;;;;18.63;6.00;;;8.50;99.90;;;;;;5066836;28;20567;-81
2024/03/21 00:27:42;;;;;;;8.23;5.57;;;8.40;99.90;;;;;;5068644;28;20450;-81
2024/03/21 00:30:27;;;;;;;11.80;5.60;;;8.40;99.90;;;;;;5066032;28;20788;-82
2024/03/21 00:33:14;;;;;;;9.57;5.90;;;8.50;99.90;;;;;;5064401;28;20583;-81
2024/03/21 00:35:59;;;;;;;12.10;5.50;;;8.50;99.90;;;;;;5064625;28;21281;-82
2024/03/21 00:38:45;;;;;;;10.37;5.90;;;8.40;99.90;;;;;;5065037;28;20440;-82
2024/03/21 00:41:29;;;;;;;7.23;4.67;;;8.40;99.90;;;;;;5067097;28;20449;-83
2024/03/21 00:44:15;;;;;;;7.40;5.10;;;8.50;99.90;;;;;;5065363;28;20476;-81
2024/03/21 00:46:59;;;;;;;6.43;5.07;;;8.50;99.90;;;;;;5066507;28;20478;-82
2024/03/21 00:49:47;;;;;;;8.83;5.23;;;8.40;99.90;;;;;;5063941;28;20850;-82
2024/03/21 00:52:31;;;;;;;8.43;5.87;;;8.50;99.90;;;;;;5065783;28;20472;-81
2024/03/21 00:55:17;;;;;;;8.63;5.30;;;8.50;99.90;;;;;;5066942;28;20468;-83
2024/03/21 00:58:01;;;;;;;8.00;5.40;;;8.50;99.90;;;;;;5064660;28;20828;-82
2024/03/21 01:00:47;;;;;;;6.77;4.97;;;8.50;99.90;;;;;;5064384;28;20427;-83
2024/03/21 01:03:32;;;;;;;5.80;4.20;;;8.50;99.90;;;;;;5067974;28;21052;-81
2024/03/21 01:06:19;;;;;;;11.53;4.90;;;8.40;99.90;;;;;;5062176;28;20543;-81
2024/03/21 01:09:04;;;;;;;6.07;4.50;;;8.30;99.90;;;;;;5065864;28;20463;-81
2024/03/21 01:11:49;;;;;;;8.07;4.53;;;8.20;99.90;;;;;;5064541;28;20420;-82
2024/03/21 01:14:34;;;;;;;7.17;3.90;;;8.10;99.90;;;;;;5080708;28;20530;-81
2024/03/21 01:17:20;;;;;;;5.00;4.30;;;8.20;99.90;;;;;;5073007;28;20563;-83
2024/03/21 01:20:06;;;;;;;5.27;4.17;;;8.20;99.90;;;;;;5072787;28;20437;-84
2024/03/21 01:22:54;;;;;;;9.10;4.50;;;8.10;99.90;;;;;;5075385;28;20433;-81
2024/03/21 01:25:38;;;;;;;14.33;4.70;;;8.20;99.90;;;;;;5067286;28;20495;-81
2024/03/21 01:28:24;;;;;;;5.10;4.20;;;8.20;99.90;;;;;;5070440;28;20562;-82
2024/03/21 01:31:14;;;;;;;14.13;5.60;;;8.20;99.90;;;;;;5074522;28;20445;-82
2024/03/21 01:34:01;;;;;;;12.10;4.37;;;8.20;99.90;;;;;;5075387;28;20457;-83
2024/03/21 01:36:46;;;;;;;7.20;5.33;;;8.20;99.90;;;;;;5070645;28;20448;-84
2024/03/21 01:39:33;;;;;;;4.93;4.43;;;8.20;99.90;;;;;;5068505;28;20978;-83
2024/03/21 01:42:19;;;;;;;9.73;5.10;;;8.20;99.90;;;;;;5066332;28;20492;-81
2024/03/21 01:45:05;;;;;;;9.80;5.87;;;8.10;99.90;;;;;;5074417;28;20497;-83
2024/03/21 01:47:50;;;;;;;7.97;5.00;;;8.10;99.90;;;;;;5072017;28;20464;-84
2024/03/21 01:50:40;;;;;;;7.37;5.10;;;8.10;99.90;;;;;;5068878;28;20572;-83
2024/03/21 01:53:28;;;;;;;6.13;5.00;;;8.20;99.90;;;;;;5069137;28;20490;-83
2024/03/21 01:56:15;;;;;;;10.17;5.20;;;8.20;99.90;;;;;;5070517;28;20485;-82
2024/03/21 01:59:00;;;;;;;5.33;3.90;;;8.20;99.90;;;;;;5071299;28;20810;-82
2024/03/21 02:01:49;;;;;;;8.30;5.17;;;8.20;99.90;;;;;;5071189;28;20429;-83
2024/03/21 02:04:37;;;;;;;11.13;5.00;;;8.10;99.90;;;;;;5070703;28;20485;-82
2024/03/21 02:07:22;;;;;;;6.57;5.20;;;8.20;99.90;;;;;;5070731;28;20424;-82
2024/03/21 02:10:08;;;;;;;6.40;4.97;;;8.10;99.90;;;;;;5075156;28;20440;-84
2024/03/21 02:12:55;;;;;;;10.50;5.43;;;8.20;99.90;;;;;;5073317;28;20846;-84
2024/03/21 02:15:41;;;;;;;11.27;5.90;;;8.20;99.90;;;;;;5072855;28;20955;-81
2024/03/21 02:18:26;;;;;;;6.97;5.30;;;8.10;99.90;;;;;;5073902;28;20967;-82
2024/03/21 02:24:12;;;;;;;14.50;4.80;;;8.10;99.90;;;;;;5068969;28;20439;-83
2024/03/21 02:26:57;;;;;;;8.00;5.13;;;8.20;99.90;;;;;;5066572;28;20549;-82
2024/03/21 02:29:42;;;;;;;5.43;4.80;;;8.20;99.90;;;;;;5068913;28;20434;-84
2024/03/21 02:32:27;;;;;;;8.63;5.60;;;8.20;99.90;;;;;;5067138;28;20429;-83
2024/03/21 02:35:13;;;;;;;16.50;5.40;;;8.10;99.90;;;;;;5072845;28;20468;-83
2024/03/21 02:37:58;;;;;;;6.57;4.73;;;8.10;99.90;;;;;;5067866;28;20568;-80
2024/03/21 02:40:47;;;;;;;6.30;5.10;;;8.30;99.90;;;;;;5073148;28;20442;-84
2024/03/21 02:43:33;;;;;;;7.60;4.83;;;8.30;99.90;;;;;;5074229;28;20446;-84
2024/03/21 02:46:17;;;;;;;10.53;4.93;;;8.20;99.90;;;;;;5075706;28;20500;-84
2024/03/21 02:49:03;;;;;;;5.33;4.60;;;8.20;99.90;;;;;;5067624;28;21080;-83
2024/03/21 02:51:48;;;;;;;7.53;5.20;;;8.10;99.90;;;;;;5071572;28;20949;-83
2024/03/21 02:54:34;;;;;;;7.50;4.90;;;8.10;99.90;;;;;;5072244;28;20468;-82
2024/03/21 02:57:20;;;;;;;7.50;4.67;;;8.00;99.90;;;;;;5073127;28;20586;-81
2024/03/21 03:00:08;;;;;;;6.23;4.43;;;8.00;99.90;;;;;;5078211;28;20448;-82
2024/03/21 03:02:53;;;;;;;7.53;3.90;;;8.10;99.90;;;;;;5071382;28;20445;-82
2024/03/21 03:05:42;;;;;;;6.83;4.80;;;7.90;99.90;;;;;;5073590;28;20481;-83
2024/03/21 03:08:26;;;;;;;4.87;4.10;;;7.90;99.90;;;;;;5077013;28;20453;-84
2024/03/21 03:11:12;;;;;;;5.63;4.83;;;7.90;99.90;;;;;;5074894;28;20567;-82
2024/03/21 03:13:58;;;;;;;9.27;5.17;;;7.90;99.90;;;;;;5071057;28;20439;-81
2024/03/21 03:16:44;;;;;;;6.97;5.00;;;7.80;99.90;;;;;;5073270;28;20431;-81
2024/03/21 03:19:28;;;;;;;9.90;4.77;;;7.80;99.90;;;;;;5075753;28;20449;-82
2024/03/21 03:22:14;;;;;;;5.37;4.03;;;7.80;99.90;;;;;;5072990;28;20971;-83
2024/03/21 03:24:58;;;;;;;4.80;4.23;;;7.80;99.90;;;;;;5073263;28;20458;-83
2024/03/21 03:27:44;;;;;;;7.73;4.47;;;7.70;99.90;;;;;;5072308;28;20426;-82
2024/03/21 03:30:30;;;;;;;9.57;4.73;;;7.70;99.90;;;;;;5069619;28;20512;-83
2024/03/21 03:36:19;;;;;;;5.97;4.83;;;7.70;99.90;;;;;;5067758;28;20907;-83
2024/03/21 03:39:05;;;;;;;5.10;4.13;;;7.60;99.90;;;;;;5067371;28;20559;-82
2024/03/21 03:41:51;;;;;;;6.30;4.80;;;7.70;99.90;;;;;;5071311;28;20456;-82
2024/03/21 03:44:36;;;;;;;6.70;4.70;;;7.60;99.90;;;;;;5066277;28;20575;-81
2024/03/21 03:47:24;;;;;;;7.07;4.00;;;7.60;99.90;;;;;;5063735;28;20519;-81
2024/03/21 03:50:09;;;;;;;6.93;4.27;;;7.60;99.90;;;;;;5068250;28;20517;-82
2024/03/21 03:52:55;;;;;;;6.13;5.10;;;7.50;99.90;;;;;;5067362;28;20508;-82
2024/03/21 03:55:40;;;;;;;4.97;4.10;;;7.40;99.90;;;;;;5069428;28;20460;-82
2024/03/21 03:58:25;;;;;;;9.23;3.40;;;7.30;99.90;;;;;;5066954;28;20443;-83
2024/03/21 04:01:10;;;;;;;18.93;4.23;;;7.30;99.90;;;;;;5070048;28;20441;-81
2024/03/21 04:03:57;;;;;;;5.50;3.50;;;7.20;99.90;;;;;;5064975;28;20480;-82
2024/03/21 04:06:42;;;;;;;4.93;3.97;;;7.20;99.90;;;;;;5068257;28;20469;-82
2024/03/21 04:09:28;;;;;;;7.67;4.40;;;7.20;99.90;;;;;;5063961;28;20458;-81
2024/03/21 04:12:13;;;;;;;8.80;4.83;;;7.10;99.90;;;;;;5063458;28;20560;-83
2024/03/21 04:14:58;;;;;;;5.97;3.43;;;7.10;99.90;;;;;;5064966;28;20466;-82
2024/03/21 04:17:43;;;;;;;13.40;4.47;;;7.10;99.90;;;;;;5067172;28;20424;-82
2024/03/21 04:20:30;;;;;;;5.80;3.90;;;7.20;99.90;;;;;;5068098;28;20470;-83
2024/03/21 04:23:16;;;;;;;5.40;3.87;;;7.10;99.90;;;;;;5066094;28;20783;-83
2024/03/21 04:26:00;;;;;;;7.77;3.93;;;7.20;99.90;;;;;;5067973;28;20472;-84
2024/03/21 04:28:46;;;;;;;7.30;4.00;;;7.10;99.90;;;;;;5067297;28;20609;-82
2024/03/21 04:31:30;;;;;;;5.23;4.10;;;7.10;99.90;;;;;;5069317;28;20499;-82
2024/03/21 04:34:16;;;;;;;6.07;3.60;;;7.00;99.90;;;;;;5066505;28;20533;-80
2024/03/21 04:37:02;;;;;;;7.43;4.60;;;7.00;99.90;;;;;;5066924;28;20451;-82
2024/03/21 04:39:49;;;;;;;5.47;3.73;;;6.90;99.90;;;;;;5068627;28;20535;-82
2024/03/21 04:42:34;;;;;;;9.30;4.00;;;6.90;99.90;;;;;;5069318;28;20520;-84
2024/03/21 04:45:22;;;;;;;5.70;3.50;;;7.00;99.90;;;;;;5071718;28;21013;-82
2024/03/21 04:48:08;;;;;;;5.90;3.47;;;7.00;99.90;;;;;;5070870;28;20863;-83
2024/03/21 04:50:53;;;;;;;10.20;4.57;;;7.00;99.90;;;;;;5064672;28;20461;-83
2024/03/21 04:53:40;;;;;;;4.93;3.47;;;6.90;99.90;;;;;;5065594;28;20448;-82
2024/03/21 04:56:25;;;;;;;5.73;3.37;;;6.90;99.90;;;;;;5065419;28;20435;-82
2024/03/21 04:59:10;;;;;;;5.57;4.07;;;7.00;99.90;;;;;;5069205;28;20487;-83
2024/03/21 05:01:56;;;;;;;3.67;3.27;;;7.10;99.90;;;;;;5067207;28;20447;-82
2024/03/21 05:04:40;;;;;;;8.30;4.70;;;7.10;99.90;;;;;;5065653;28;20553;-82
2024/03/21 05:07:26;;;;;;;4.93;3.83;;;7.00;99.90;;;;;;5075319;28;20599;-82
2024/03/21 05:10:13;;;;;;;5.53;3.67;;;6.90;99.90;;;;;;5082158;28;20479;-84
2024/03/21 05:12:59;;;;;;;9.10;3.80;;;6.90;99.90;;;;;;5069387;28;20517;-82
2024/03/21 05:15:48;;;;;;;7.40;3.63;;;6.90;99.90;;;;;;5072715;28;20530;-82
2024/03/21 05:18:33;;;;;;;6.50;4.80;;;6.80;99.90;;;;;;5073273;28;20452;-82
2024/03/21 05:21:19;;;;;;;7.50;4.23;;;6.70;99.90;;;;;;5069115;28;20502;-82
2024/03/21 05:24:04;;;;;;;5.53;3.30;;;6.70;99.90;;;;;;5069306;28;20448;-82
2024/03/21 05:26:51;;;;;;;6.47;3.70;;;6.70;99.90;;;;;;5065101;28;20622;-82
2024/03/21 05:29:36;;;;;;;5.57;4.30;;;6.70;99.90;;;;;;5067785;28;20684;-81
2024/03/21 05:32:22;;;;;;;8.10;4.60;;;6.70;99.90;;;;;;5068571;28;20437;-83
2024/03/21 05:35:08;;;;;;;5.73;4.67;;;6.80;99.90;;;;;;5066953;28;20223;-82
2024/03/21 05:37:53;;;;;;;6.77;5.00;;;6.80;99.90;;;;;;5068470;28;20423;-84
2024/03/21 05:40:39;;;;;;;7.57;3.90;;;6.90;99.90;;;;;;5070295;28;20422;-82
2024/03/21 05:43:25;;;;;;;5.00;3.80;;;6.90;99.90;;;;;;5064950;28;20540;-82
2024/03/21 05:46:11;;;;;;;9.70;4.07;;;7.00;99.90;;;;;;5062711;28;20489;-81
2024/03/21 05:48:56;;;;;;;6.73;4.30;;;7.00;99.90;;;;;;5070786;28;20453;-82
2024/03/21 05:51:42;;;;;;;8.23;4.27;;;7.10;99.90;;;;;;5067454;28;20442;-83
2024/03/21 05:54:26;;;;;;;7.13;4.57;;;7.10;99.90;;;;;;5067923;28;20514;-83
2024/03/21 05:57:12;;;;;;;6.40;4.00;;;7.20;99.90;;;;;;5063965;28;20445;-83
2024/03/21 05:59:58;;;;;;;4.70;3.80;;;7.30;99.90;;;;;;5061876;28;20538;-82
2024/03/21 06:02:44;;;;;;;4.03;3.60;;;7.30;99.90;;;;;;5065733;28;20538;-81
2024/03/21 06:05:29;;;;;;;6.30;3.97;;;7.40;99.90;;;;;;5067732;28;20492;-82
2024/03/21 06:08:15;;;;;;;5.80;3.63;;;7.40;99.90;;;;;;5067501;28;21000;-81
2024/03/21 06:11:00;;;;;;;5.93;4.00;;;7.50;99.90;;;;;;5075153;28;21086;-83
2024/03/21 06:13:45;;;;;;;5.47;4.03;;;7.60;99.90;;;;;;5071769;28;20453;-82
2024/03/21 06:16:32;;;;;;;9.30;3.60;;;7.60;99.90;;;;;;5068103;28;20448;-83
2024/03/21 06:19:17;;;;;;;6.37;3.80;;;7.60;99.90;;;;;;5070411;28;20448;-81
2024/03/21 06:22:02;;;;;;;7.20;4.47;;;7.70;99.90;;;;;;5070886;28;20455;-81
2024/03/21 06:24:48;;;;;;;6.00;4.23;;;7.80;99.90;;;;;;5069505;28;20522;-82
2024/03/21 06:27:33;;;;;;;6.83;5.10;;;7.80;99.90;;;;;;5064405;28;20950;-84
2024/03/21 06:30:19;;;;;;;8.60;4.60;;;7.80;99.90;;;;;;5067173;28;21003;-83
2024/03/21 06:33:05;;;;;;;12.80;5.70;;;7.80;99.90;;;;;;5066515;28;20464;-84
2024/03/21 06:35:51;;;;;;;7.80;5.30;;;7.80;99.90;;;;;;5068430;28;20577;-83
2024/03/21 06:38:35;;;;;;;7.93;5.90;;;7.90;99.90;;;;;;5071596;28;20619;-80
2024/03/21 06:41:21;;;;;;;7.03;5.80;;;8.10;99.90;;;;;;5071570;28;20979;-83
2024/03/21 06:44:06;;;;;;;8.57;6.20;;;8.10;99.90;;;;;;5070399;28;20475;-83
2024/03/21 06:46:51;;;;;;;8.97;7.40;;;8.10;99.90;;;;;;5062352;28;21018;-83
2024/03/21 06:49:37;;;;;;;13.43;7.20;;;8.20;99.90;;;;;;5071539;28;20447;-81
2024/03/21 06:52:23;;;;;;;7.70;6.63;;;8.20;99.90;;;;;;5069420;28;20464;-83
2024/03/21 06:55:09;;;;;;;10.30;5.93;;;8.30;99.90;;;;;;5072157;28;20560;-82
2024/03/21 06:57:59;;;;;;;10.10;5.93;;;8.30;99.90;;;;;;5066330;28;20451;-81
2024/03/21 07:00:43;;;;;;;10.43;6.53;;;8.40;99.90;;;;;;5072600;28;20432;-82
2024/03/21 07:03:29;;;;;;;11.90;6.47;;;8.40;99.90;;;;;;5072779;28;20507;-83
2024/03/21 07:06:15;;;;;;;12.13;7.60;;;8.30;99.90;;;;;;5066384;28;20556;-83
2024/03/21 07:09:02;;;;;;;8.77;6.07;;;8.30;99.90;;;;;;5069039;28;20455;-84
2024/03/21 07:11:47;;;;;;;11.43;6.97;;;8.40;99.90;;;;;;5065700;28;20454;-82
2024/03/21 07:14:33;;;;;;;13.07;6.27;;;8.50;99.90;;;;;;5068470;28;20553;-84
2024/03/21 07:17:19;;;;;;;7.20;6.00;;;8.60;99.90;;;;;;5068973;28;20528;-81
2024/03/21 07:20:05;;;;;;;6.80;6.10;;;8.70;99.90;;;;;;5069013;28;20430;-83
2024/03/21 07:22:51;;;;;;;8.00;5.40;;;8.90;99.90;;;;;;5069704;28;20919;-83
2024/03/21 07:25:37;;;;;;;11.97;6.90;;;9.00;99.90;;;;;;5070539;28;20616;-85
2024/03/21 07:28:22;;;;;;;14.10;7.00;;;9.10;99.90;;;;;;5066107;28;20481;-82
2024/03/21 07:31:07;;;;;;;14.77;9.10;;;9.10;99.90;;;;;;5068916;28;20782;-83
2024/03/21 07:33:53;;;;;;;18.57;6.57;;;9.20;99.90;;;;;;5064706;28;20451;-85
2024/03/21 07:36:38;;;;;;;12.13;7.70;;;9.20;99.90;;;;;;5070429;28;20591;-81
2024/03/21 07:39:25;;;;;;;13.07;8.10;;;9.30;99.90;;;;;;5067287;28;20450;-83
2024/03/21 07:42:10;;;;;;;13.20;7.00;;;9.40;99.90;;;;;;5065300;28;20449;-83
2024/03/21 07:44:55;;;;;;;11.77;7.57;;;9.40;99.90;;;;;;5081684;28;20474;-80
2024/03/21 07:47:41;;;;;;;14.47;6.50;;;9.50;99.90;;;;;;5075372;28;20469;-80
2024/03/21 07:50:25;;;;;;;13.10;6.83;;;9.60;99.90;;;;;;5072967;28;20449;-85
2024/03/21 07:53:11;;;;;;;9.07;6.13;;;9.70;99.90;;;;;;5074024;28;20445;-82
2024/03/21 07:55:57;;;;;;;20.87;7.70;;;9.80;99.90;;;;;;5072563;28;20428;-85
2024/03/21 07:58:43;;;;;;;8.37;6.30;;;9.90;99.90;;;;;;5072583;28;20426;-80
2024/03/21 08:01:28;;;;;;;15.33;6.50;;;10.10;99.90;;;;;;5073287;28;20428;-84
2024/03/21 08:04:13;;;;;;;12.70;6.33;;;10.30;99.90;;;;;;5071667;28;20405;-81
2024/03/21 08:06:58;;;;;;;10.83;6.73;;;10.40;99.90;;;;;;5073038;28;20575;-83
2024/03/21 08:09:44;;;;;;;7.83;5.73;;;10.50;99.90;;;;;;5067511;28;20435;-83
2024/03/21 08:12:30;;;;;;;8.43;6.10;;;10.60;99.90;;;;;;5072876;28;20450;-83
2024/03/21 08:15:16;;;;;;;8.77;6.00;;;10.60;99.90;;;;;;5070149;28;20967;-83
2024/03/21 08:18:03;;;;;;;8.90;6.07;;;10.70;99.90;;;;;;5069093;28;20427;-84
2024/03/21 08:20:49;;;;;;;10.23;5.77;;;10.80;99.90;;;;;;5068890;28;21041;-85
2024/03/21 08:23:35;;;;;;;9.67;6.77;;;10.80;99.90;;;;;;5066734;28;20440;-85
2024/03/21 08:26:20;;;;;;;10.93;6.07;;;10.90;99.90;;;;;;5064021;28;20482;-82
2024/03/21 08:29:07;;;;;;;15.03;6.30;;;11.00;99.90;;;;;;5064994;28;20453;-84
2024/03/21 08:31:51;;;;;;;9.40;6.90;;;11.10;99.90;;;;;;5068278;28;20461;-83
2024/03/21 08:34:37;;;;;;;13.30;7.10;;;11.20;99.90;;;;;;5071357;28;21011;-83
2024/03/21 08:37:22;;;;;;;11.00;6.27;;;11.20;99.90;;;;;;5067594;28;20416;-82
2024/03/21 08:40:09;;;;;;;16.80;8.13;;;11.30;99.90;;;;;;5070400;28;20418;-84
2024/03/21 08:42:53;;;;;;;17.77;8.90;;;11.40;99.90;;;;;;5069896;28;20483;-84
2024/03/21 08:45:40;;;;;;;26.43;9.20;;;11.60;99.90;;;;;;5067942;28;20424;-83
2024/03/21 08:48:25;;;;;;;16.93;7.13;;;11.80;99.90;;;;;;5069393;28;20465;-83
2024/03/21 08:51:11;;;;;;;10.97;8.87;;;12.00;99.90;;;;;;5069381;28;20458;-83
2024/03/21 08:53:55;;;;;;;15.97;9.53;;;12.10;99.90;;;;;;5069471;28;20806;-84
2024/03/21 08:56:41;;;;;;;16.03;8.80;;;12.30;99.90;;;;;;5059118;28;20435;-82
2024/03/21 08:59:25;;;;;;;15.50;9.70;;;12.50;99.90;;;;;;5059121;28;20619;-83
2024/03/21 09:02:13;;;;;;;13.23;11.70;;;12.70;99.90;;;;;;5060437;28;20454;-83
2024/03/21 09:04:58;;;;;;;21.27;12.33;;;13.00;99.90;;;;;;5063318;28;20575;-83
2024/03/21 09:07:44;;;;;;;17.07;13.03;;;13.20;99.90;;;;;;5060547;28;21000;-83
2024/03/21 09:10:29;;;;;;;17.67;12.77;;;13.40;99.90;;;;;;5064822;28;20474;-84
2024/03/21 09:13:14;;;;;;;15.00;12.07;;;13.60;99.90;;;;;;5064216;28;20417;-84
2024/03/21 09:15:59;;;;;;;15.47;12.83;;;13.70;99.90;;;;;;5067057;28;20529;-83
2024/03/21 09:18:46;;;;;;;18.07;12.50;;;13.90;99.90;;;;;;5068404;28;20393;-82
2024/03/21 09:21:31;;;;;;;21.67;14.40;;;14.00;99.90;;;;;;5067051;28;20453;-84
2024/03/21 09:24:17;;;;;;;21.30;16.03;;;14.10;99.90;;;;;;5064267;28;20491;-83
2024/03/21 09:27:02;;;;;;;21.30;15.10;;;14.20;99.90;;;;;;5062968;28;20445;-84
2024/03/21 09:29:47;;;;;;;27.13;15.80;;;14.40;99.90;;;;;;5067491;28;20984;-83
2024/03/21 09:32:33;;;;;;;22.93;17.50;;;14.50;99.90;;;;;;5064689;28;20450;-83
2024/03/21 09:35:19;;;;;;;29.83;18.97;;;14.70;99.90;;;;;;5062045;28;20509;-83
2024/03/21 09:38:05;;;;;;;24.00;19.20;;;14.80;99.90;;;;;;5068409;28;20497;-84
2024/03/21 09:40:50;;;;;;;21.97;18.07;;;14.90;99.90;;;;;;5062726;28;21130;-83
2024/03/21 09:43:36;;;;;;;25.17;19.03;;;15.00;99.90;;;;;;5067797;28;20483;-83
2024/03/21 09:46:21;;;;;;;33.63;19.63;;;15.00;99.90;;;;;;5067059;28;20440;-83
2024/03/21 09:49:11;;;;;;;28.57;20.13;;;15.10;99.90;;;;;;5066077;28;20425;-83
2024/03/21 09:51:58;;;;;;;33.53;21.57;;;15.20;99.90;;;;;;5066778;28;20437;-81
2024/03/21 09:54:44;;;;;;;35.27;21.20;;;15.20;99.90;;;;;;5066133;28;20479;-81
2024/03/21 09:57:29;;;;;;;28.30;20.40;;;15.40;99.90;;;;;;5068276;28;20437;-82
2024/03/21 10:00:16;;;;;;;32.50;23.90;;;15.40;99.90;;;;;;5068166;28;20438;-82
2024/03/21 10:03:02;;;;;;;26.97;21.27;;;15.50;99.90;;;;;;5066120;28;20527;-82
2024/03/21 10:05:48;;;;;;;32.20;23.97;;;15.50;99.90;;;;;;5065734;28;20450;-81
2024/03/21 10:08:34;;;;;;;38.17;25.90;;;15.60;99.90;;;;;;5073072;28;20566;-82
2024/03/21 10:11:21;;;;;;;38.30;26.87;;;15.70;99.90;;;;;;5069024;28;20430;-82
2024/03/21 10:14:06;;;;;;;39.00;27.10;;;15.80;99.90;;;;;;5066731;28;20421;-82
2024/03/21 10:16:51;;;;;;;35.93;26.03;;;15.90;99.90;;;;;;5066612;28;20474;-83
2024/03/21 10:19:36;;;;;;;35.13;25.30;;;16.10;99.90;;;;;;5071717;28;20927;-85
2024/03/21 10:22:22;;;;;;;35.60;25.00;;;16.20;99.90;;;;;;5075400;28;20574;-83
2024/03/21 10:25:09;;;;;;;34.77;26.00;;;16.30;99.90;;;;;;5075880;28;20467;-84
2024/03/21 10:27:55;;;;;;;32.97;23.20;;;16.30;99.90;;;;;;5071209;28;21070;-85
2024/03/21 10:30:41;;;;;;;32.70;23.37;;;16.30;99.90;;;;;;5067766;28;20394;-84
2024/03/21 10:33:28;;;;;;;30.87;24.67;;;16.50;99.90;;;;;;5070972;28;20619;-84
2024/03/21 10:36:15;;;;;;;34.43;25.70;;;16.60;99.90;;;;;;5070700;28;20456;-83
2024/03/21 10:39:01;;;;;;;28.60;21.77;;;16.80;99.90;;;;;;5075730;28;20489;-85
2024/03/21 10:41:48;;;;;;;33.33;25.00;;;16.90;99.90;;;;;;5074744;28;20427;-85
2024/03/21 10:44:34;;;;;;;27.07;23.20;;;16.90;99.90;;;;;;5074437;28;20431;-85
2024/03/21 10:47:20;;;;;;;34.10;24.57;;;16.90;99.90;;;;;;5075349;28;20459;-84
2024/03/21 10:50:18;;;;;;;33.10;26.03;;;16.80;99.90;;;;;;5070222;28;20505;-85
2024/03/21 10:53:04;;;;;;;38.00;26.27;;;16.70;99.90;;;;;;5071311;28;20423;-84
2024/03/21 10:55:50;;;;;;;41.23;29.73;;;16.50;99.90;;;;;;5068283;28;20951;-84
2024/03/21 10:58:43;;;;;;;37.60;29.60;;;16.40;99.90;;;;;;5075233;28;20435;-83
2024/03/21 11:01:37;;;;;;;37.13;26.27;;;16.40;99.90;;;;;;5073365;28;20411;-85
2024/03/21 11:04:23;;;;;;;37.70;26.87;;;16.30;99.90;;;;;;5070277;28;20937;-84
2024/03/21 11:07:09;;;;;;;41.53;30.03;;;16.20;99.90;;;;;;5065692;28;20450;-83
2024/03/21 11:09:56;;;;;;;45.00;32.33;;;16.20;99.90;;;;;;5067801;28;20505;-83
2024/03/21 11:12:42;;;;;;;48.90;34.83;;;16.10;99.90;;;;;;5073216;28;20431;-84
2024/03/21 11:15:29;;;;;;;59.20;39.50;;;16.10;99.90;;;;;;5072942;28;20804;-84
2024/03/21 11:18:14;;;;;;;56.50;42.17;;;16.10;99.90;;;;;;5070581;28;20467;-83
2024/03/21 11:20:59;;;;;;;60.77;42.60;;;16.20;99.90;;;;;;5068095;28;20406;-83
2024/03/21 11:23:44;;;;;;;57.70;41.37;;;16.40;99.90;;;;;;5067861;28;20452;-83
2024/03/21 11:26:29;;;;;;;53.73;39.13;;;16.60;99.90;;;;;;5070595;28;20435;-83
2024/03/21 11:29:15;;;;;;;49.67;35.00;;;16.80;99.90;;;;;;5068930;28;20482;-83
2024/03/21 11:32:02;;;;;;;47.70;34.10;;;16.90;99.20;;;;;;5070755;28;20410;-83
2024/03/21 11:34:47;;;;;;;48.93;34.10;;;17.00;93.40;;;;;;5068121;28;20443;-83
2024/03/21 11:37:32;;;;;;;45.27;32.67;;;16.90;93.40;;;;;;5067279;28;20423;-83
2024/03/21 11:40:17;;;;;;;40.30;30.73;;;17.00;92.60;;;;;;5065506;28;20406;-83
2024/03/21 11:43:04;;;;;;;40.13;28.33;;;17.10;92.20;;;;;;5064818;28;20403;-84
2024/03/21 11:45:49;;;;;;;35.40;26.70;;;17.30;86.20;;;;;;5068165;28;20442;-84
2024/03/21 11:48:36;;;;;;;36.90;25.00;;;17.30;82.60;;;;;;5067579;28;20450;-83
2024/03/21 11:51:22;;;;;;;38.57;25.23;;;17.10;83.70;;;;;;5069989;28;20475;-84
2024/03/21 11:54:09;;;;;;;43.83;29.07;;;16.90;81.00;;;;;;5072273;28;20447;-84
2024/03/21 11:56:56;;;;;;;34.77;24.27;;;17.10;80.20;;;;;;5069195;28;20475;-83
2024/03/21 11:59:42;;;;;;;31.40;22.20;;;17.30;79.60;;;;;;5071063;28;20408;-84
2024/03/21 12:02:28;;;;;;;26.73;21.60;;;17.50;73.80;;;;;;5066697;28;20424;-84
2024/03/21 12:05:14;;;;;;;29.00;22.43;;;17.60;72.10;;;;;;5070698;28;20421;-83
2024/03/21 12:08:00;;;;;;;31.07;21.53;;;17.60;70.20;;;;;;5066866;28;20543;-84
2024/03/21 12:10:44;;;;;;;28.93;22.07;;;17.70;70.20;;;;;;5069258;28;20427;-83
2024/03/21 12:13:30;;;;;;;28.90;21.00;;;17.70;69.70;;;;;;5070421;28;20436;-83
2024/03/21 12:16:15;;;;;;;28.83;20.53;;;17.90;70.60;;;;;;5070005;28;20446;-83
2024/03/21 12:19:01;;;;;;;27.80;19.73;;;18.00;68.80;;;;;;5072926;28;20439;-82
2024/03/21 12:21:47;;;;;;;30.27;19.60;;;18.10;68.30;;;;;;5068799;28;20442;-83
2024/03/21 12:24:33;;;;;;;21.00;15.70;;;18.00;65.30;;;;;;5071906;28;20532;-83
2024/03/21 12:27:17;;;;;;;16.47;13.80;;;17.80;65.30;;;;;;5071340;28;20425;-82
2024/03/21 12:30:03;;;;;;;20.67;14.37;;;17.70;66.10;;;;;;5068311;28;20407;-82
2024/03/21 12:32:48;;;;;;;19.53;13.50;;;17.60;65.70;;;;;;5069279;28;20485;-83
2024/03/21 12:35:35;;;;;;;17.60;11.17;;;17.50;66.70;;;;;;5075198;28;20484;-83
2024/03/21 12:38:22;;;;;;;13.70;10.00;;;17.30;66.00;;;;;;5073283;28;20767;-82
2024/03/21 12:41:07;;;;;;;11.80;9.17;;;17.20;65.50;;;;;;5072087;28;20438;-82
2024/03/21 12:43:53;;;;;;;18.23;7.97;;;17.10;65.00;;;;;;5074372;28;20929;-82
2024/03/21 12:46:38;;;;;;;12.70;7.47;;;17.10;65.70;;;;;;5072082;28;20598;-82
2024/03/21 12:49:23;;;;;;;8.87;7.70;;;17.20;65.60;;;;;;5069664;28;21109;-81
2024/03/21 12:52:08;;;;;;;9.50;6.80;;;17.10;62.60;;;;;;5060285;28;20459;-81
2024/03/21 12:54:55;;;;;;;10.77;6.10;;;17.00;62.50;;;;;;5065859;28;21850;-82
2024/03/21 12:57:41;;;;;;;8.60;6.10;;;16.80;62.30;;;;;;5081750;28;20414;-81
2024/03/21 13:00:26;;;;;;;8.87;7.03;;;16.70;63.40;;;;;;5073044;28;20502;-82
2024/03/21 13:03:11;;;;;;;8.87;5.93;;;16.60;63.70;;;;;;5071195;28;20397;-82
2024/03/21 13:05:56;;;;;;;9.30;5.87;;;16.60;65.70;;;;;;5064429;28;20475;-81
2024/03/21 13:08:41;;;;;;;7.27;6.10;;;16.60;65.20;;;;;;5069242;28;20510;-81
2024/03/21 13:11:29;;;;;;;9.33;6.10;;;16.70;66.10;;;;;;5070727;28;20403;-82
2024/03/21 13:14:15;;;;;;;9.23;5.67;;;16.80;67.70;;;;;;5069758;28;20440;-82
2024/03/21 13:17:00;;;;;;;8.27;4.93;;;17.00;66.40;;;;;;5074709;28;20446;-81
2024/03/21 13:19:46;;;;;;;8.63;5.00;;;17.10;62.60;;;;;;5068855;28;20437;-82
2024/03/21 13:22:31;;;;;;;10.03;5.80;;;17.20;62.70;;;;;;5068329;28;20575;-81
2024/03/21 13:25:19;;;;;;;11.23;5.20;;;17.20;64.70;;;;;;5067144;28;20471;-82
2024/03/21 13:28:06;;;;;;;10.13;5.53;;;17.10;62.80;;;;;;5067741;28;20476;-82
2024/03/21 13:30:52;;;;;;;6.97;4.93;;;17.10;62.60;;;;;;5067731;28;20493;-82
2024/03/21 13:33:36;;;;;;;9.87;4.90;;;17.00;63.30;;;;;;5068260;28;20532;-82
2024/03/21 13:36:22;;;;;;;5.33;4.33;;;17.10;62.60;;;;;;5068363;28;20586;-82
2024/03/21 13:39:09;;;;;;;5.70;4.30;;;17.30;59.40;;;;;;5068108;28;20526;-82
2024/03/21 13:41:53;;;;;;;10.20;4.10;;;17.70;60.80;;;;;;5067125;28;20873;-83
2024/03/21 13:44:41;;;;;;;5.40;3.87;;;18.10;60.70;;;;;;5067405;28;21023;-83
2024/03/21 13:47:28;;;;;;;7.47;3.77;;;18.40;56.40;;;;;;5066810;28;20948;-82
2024/03/21 13:50:13;;;;;;;7.37;3.80;;;18.70;53.10;;;;;;5064894;28;20452;-82
2024/03/21 13:52:58;;;;;;;6.83;3.73;;;18.90;47.00;;;;;;5067843;28;20428;-83
2024/03/21 13:55:44;;;;;;;6.00;3.50;;;19.10;44.30;;;;;;5067097;28;20539;-83
2024/03/21 13:58:29;;;;;;;6.90;3.60;;;19.10;38.90;;;;;;5069142;28;20465;-83
2024/03/21 14:01:16;;;;;;;3.70;2.80;;;18.90;41.60;;;;;;5071258;28;20476;-82
2024/03/21 14:04:00;;;;;;;13.30;4.70;;;18.80;41.70;;;;;;5068478;28;21099;-83
2024/03/21 14:06:46;;;;;;;5.13;3.50;;;18.80;37.60;;;;;;5064832;28;20427;-83
2024/03/21 14:09:30;;;;;;;6.70;3.10;;;18.80;38.30;;;;;;5065568;28;20835;-82
2024/03/21 14:12:16;;;;;;;6.90;2.87;;;18.70;38.50;;;;;;5062830;28;20458;-81
2024/03/21 14:15:01;;;;;;;4.00;2.70;;;18.60;35.10;;;;;;5065256;28;20450;-82
2024/03/21 14:17:48;;;;;;;3.63;2.60;;;18.60;36.10;;;;;;5067190;28;20420;-82
2024/03/21 14:20:32;;;;;;;3.53;2.50;;;18.60;36.60;;;;;;5066207;28;20440;-83
2024/03/21 14:23:18;;;;;;;5.80;3.63;;;18.80;38.30;;;;;;5067566;28;20469;-83
2024/03/21 14:26:03;;;;;;;5.03;3.50;;;18.90;35.90;;;;;;5063406;28;20526;-83